createdAt,value
2022-12-03T00:01:53.857Z,7.35
2022-12-03T00:06:55.169Z,8.38
2022-12-03T00:11:56.503Z,8.25
2022-12-03T00:16:58.247Z,9.15
2022-12-03T00:21:59.549Z,7.65
2022-12-03T00:27:00.854Z,7.68
2022-12-03T00:32:02.191Z,7.43
2022-12-03T00:37:03.502Z,7.53
2022-12-03T00:42:05.028Z,6.90
2022-12-03T00:47:06.451Z,7.03
2022-12-03T00:52:07.952Z,8.13
2022-12-03T00:57:09.254Z,7.25
2022-12-03T01:02:10.605Z,7.47
2022-12-03T01:07:11.987Z,6.50
2022-12-03T01:12:13.667Z,7.25
2022-12-03T01:17:15.033Z,7.28
2022-12-03T01:22:16.350Z,7.85
2022-12-03T01:27:17.639Z,7.80
2022-12-03T01:32:22.039Z,8.05
2022-12-03T01:37:24.599Z,7.45
2022-12-03T01:42:27.894Z,8.07
2022-12-03T01:47:31.075Z,7.60
2022-12-03T01:52:34.158Z,7.22
2022-12-03T01:58:01.537Z,7.35
2022-12-03T02:03:07.316Z,8.60
2022-12-03T02:08:27.121Z,7.78
2022-12-03T02:13:28.634Z,7.60
2022-12-03T02:18:30.875Z,7.30
2022-12-03T02:23:39.474Z,7.47
2022-12-03T02:28:40.866Z,7.25
2022-12-03T02:33:42.186Z,7.22
2022-12-03T02:38:45.247Z,8.15
2022-12-03T02:43:46.553Z,7.47
2022-12-03T02:48:47.873Z,8.32
2022-12-03T02:53:50.624Z,7.25
2022-12-03T02:58:53.598Z,7.63
2022-12-03T03:03:55.081Z,8.48
2022-12-03T03:08:57.208Z,7.63
2022-12-03T03:14:00.392Z,8.18
2022-12-03T03:19:02.165Z,8.25
2022-12-03T03:24:03.976Z,6.85
2022-12-03T03:29:05.325Z,8.30
2022-12-03T03:34:06.661Z,8.38
2022-12-03T03:39:08.076Z,7.22
2022-12-03T03:44:09.688Z,8.10
2022-12-03T03:49:11.621Z,7.82
2022-12-03T03:54:15.535Z,7.15
2022-12-03T03:59:16.892Z,7.88
2022-12-03T04:04:20.382Z,8.95
2022-12-03T04:09:21.794Z,8.20
2022-12-03T04:14:23.082Z,8.27
2022-12-03T04:19:24.396Z,8.45
2022-12-03T04:24:25.688Z,9.00
2022-12-03T04:29:26.992Z,8.77
2022-12-03T04:34:47.080Z,8.27
2022-12-03T04:39:48.409Z,7.70
2022-12-03T04:44:49.917Z,8.55
2022-12-03T04:49:51.591Z,8.48
2022-12-03T04:54:53.266Z,9.20
2022-12-03T05:00:10.118Z,9.05
2022-12-03T05:05:11.429Z,7.90
2022-12-03T05:10:12.819Z,8.50
2022-12-03T05:15:14.124Z,8.48
2022-12-03T05:20:34.415Z,9.30
2022-12-03T05:25:35.709Z,8.75
2022-12-03T05:30:37.098Z,8.82
2022-12-03T05:35:38.489Z,8.23
2022-12-03T05:40:39.846Z,7.68
2022-12-03T05:45:42.512Z,10.00
2022-12-03T05:50:44.856Z,7.93
2022-12-03T05:55:48.939Z,9.50
2022-12-03T06:00:50.250Z,9.27
2022-12-03T06:05:51.627Z,7.97
2022-12-03T06:10:52.964Z,8.43
2022-12-03T06:15:54.299Z,8.90
2022-12-03T06:20:55.622Z,8.93
2022-12-03T06:25:56.933Z,8.45
2022-12-03T06:30:58.303Z,8.35
2022-12-03T06:35:59.651Z,9.80
2022-12-03T06:41:01.038Z,8.27
2022-12-03T06:46:02.374Z,9.25
2022-12-03T06:51:03.835Z,10.10
2022-12-03T06:56:05.351Z,8.43
2022-12-03T07:01:06.642Z,9.35
2022-12-03T07:06:08.003Z,7.70
2022-12-03T07:11:29.343Z,9.43
2022-12-03T07:16:30.749Z,9.80
2022-12-03T07:21:32.272Z,9.20
2022-12-03T07:26:33.562Z,9.02
2022-12-03T07:31:34.969Z,8.70
2022-12-03T07:36:36.380Z,9.38
2022-12-03T07:41:37.702Z,8.95
2022-12-03T07:46:39.059Z,9.73
2022-12-03T07:51:40.488Z,8.30
2022-12-03T07:56:42.418Z,8.82
2022-12-03T08:01:44.232Z,10.68
2022-12-03T08:06:45.702Z,8.65
2022-12-03T08:11:47.729Z,9.27
2022-12-03T08:16:49.242Z,8.45
2022-12-03T08:21:50.624Z,10.38
2022-12-03T08:26:51.995Z,9.27
2022-12-03T08:31:57.018Z,9.07
2022-12-03T08:37:01.355Z,8.13
2022-12-03T08:42:29.977Z,9.88
2022-12-03T08:47:31.310Z,8.85
2022-12-03T08:52:33.642Z,9.23
2022-12-03T08:57:34.955Z,8.88
2022-12-03T09:02:36.269Z,9.15
2022-12-03T09:07:37.610Z,7.50
2022-12-03T09:12:38.994Z,8.88
2022-12-03T09:17:40.297Z,9.55
2022-12-03T09:22:41.633Z,8.38
2022-12-03T09:27:42.943Z,8.73
2022-12-03T09:32:44.261Z,8.70
2022-12-03T09:37:45.566Z,7.90
2022-12-03T09:42:47.129Z,8.18
2022-12-03T09:47:49.263Z,7.75
2022-12-03T09:52:51.102Z,7.75
2022-12-03T09:57:53.184Z,7.60
2022-12-03T10:03:02.685Z,8.07
2022-12-03T10:08:05.695Z,7.18
2022-12-03T10:13:07.846Z,7.38
2022-12-03T10:18:16.753Z,8.10
2022-12-03T10:23:25.089Z,7.35
2022-12-03T10:28:34.094Z,9.00
2022-12-03T10:33:36.788Z,8.85
2022-12-03T10:38:38.118Z,7.18
2022-12-03T10:43:39.498Z,7.75
2022-12-03T10:48:40.813Z,8.23
2022-12-03T10:53:42.205Z,8.93
2022-12-03T10:58:43.544Z,8.30
2022-12-03T11:03:45.643Z,9.15
2022-12-03T11:08:54.723Z,8.27
2022-12-03T11:13:59.231Z,9.07
2022-12-03T11:19:01.614Z,7.70
2022-12-03T11:24:03.827Z,8.60
2022-12-03T11:29:12.198Z,9.23
2022-12-03T11:34:16.547Z,7.57
2022-12-03T11:39:37.804Z,7.43
2022-12-03T11:44:39.156Z,9.98
2022-12-03T11:49:45.005Z,7.75
2022-12-03T11:54:48.219Z,9.40
2022-12-03T11:59:59.738Z,7.88
2022-12-03T12:05:16.340Z,9.07
2022-12-03T12:10:36.380Z,8.80
2022-12-03T12:15:42.263Z,9.15
2022-12-03T12:20:43.628Z,7.00
2022-12-03T12:25:52.440Z,9.07
2022-12-03T12:30:55.384Z,8.95
2022-12-03T12:35:56.682Z,8.63
2022-12-03T12:40:58.097Z,9.05
2022-12-03T12:46:13.576Z,7.72
2022-12-03T12:51:20.331Z,9.02
2022-12-03T12:56:30.230Z,9.02
2022-12-03T13:01:32.132Z,7.65
2022-12-03T13:06:34.398Z,8.02
2022-12-03T13:11:36.798Z,8.05
2022-12-03T13:16:38.155Z,8.68
2022-12-03T13:21:40.562Z,9.18
2022-12-03T13:26:41.862Z,10.13
2022-12-03T13:31:50.411Z,9.40
2022-12-03T13:36:57.510Z,9.93
2022-12-03T13:42:31.210Z,9.90
2022-12-03T13:47:32.545Z,9.32
2022-12-03T13:52:34.490Z,10.43
2022-12-03T13:57:35.859Z,10.90
2022-12-03T14:02:37.301Z,10.13
2022-12-03T14:07:38.977Z,9.85
2022-12-03T14:12:40.398Z,10.88
2022-12-03T14:17:41.697Z,10.98
2022-12-03T14:22:43.015Z,10.05
2022-12-03T14:27:44.301Z,10.48
2022-12-03T14:32:45.665Z,9.98
2022-12-03T14:37:47.001Z,9.15
2022-12-03T14:42:48.324Z,10.00
2022-12-03T14:47:49.720Z,10.63
2022-12-03T14:52:51.028Z,9.00
2022-12-03T14:57:52.608Z,10.18
2022-12-03T15:02:54.038Z,9.82
2022-12-03T15:07:55.569Z,10.30
2022-12-03T15:12:57.011Z,12.70
2022-12-03T15:17:58.304Z,11.35
2022-12-03T15:22:59.612Z,10.35
2022-12-03T15:28:02.809Z,11.10
2022-12-03T15:33:04.251Z,10.15
2022-12-03T15:38:05.555Z,11.57
2022-12-03T15:43:07.744Z,9.68
2022-12-03T15:48:09.152Z,10.75
2022-12-03T15:53:10.454Z,10.98
2022-12-03T15:58:11.747Z,9.50
2022-12-03T16:03:13.210Z,10.13
2022-12-03T16:08:14.734Z,11.18
2022-12-03T16:13:16.153Z,11.15
2022-12-03T16:18:17.574Z,11.27
2022-12-03T16:23:18.905Z,11.48
2022-12-03T16:28:20.246Z,11.43
2022-12-03T16:33:27.260Z,10.10
2022-12-03T16:38:29.043Z,10.85
2022-12-03T16:43:30.567Z,10.98
2022-12-03T16:48:31.870Z,10.70
2022-12-03T16:53:33.231Z,10.40
2022-12-03T16:58:34.749Z,10.57
2022-12-03T17:03:36.098Z,10.93
2022-12-03T17:08:37.475Z,11.98
2022-12-03T17:13:38.781Z,10.73
2022-12-03T17:18:40.083Z,11.25
2022-12-03T17:23:41.414Z,10.40
2022-12-03T17:28:42.734Z,10.35
2022-12-03T17:33:44.049Z,10.82
2022-12-03T17:38:45.418Z,9.77
2022-12-03T17:43:46.755Z,10.23
2022-12-03T17:48:48.091Z,12.27
2022-12-03T17:53:49.422Z,11.13
2022-12-03T17:58:50.761Z,10.32
2022-12-03T18:03:52.144Z,10.32
2022-12-03T18:08:53.554Z,10.75
2022-12-03T18:13:54.919Z,9.60
2022-12-03T18:18:57.722Z,9.95
2022-12-03T18:24:02.126Z,10.68
2022-12-03T18:29:03.589Z,10.55
2022-12-03T18:34:04.904Z,10.25
2022-12-03T18:39:09.014Z,9.80
2022-12-03T18:44:10.674Z,10.45
2022-12-03T18:49:12.069Z,11.05
2022-12-03T18:54:13.730Z,10.55
2022-12-03T18:59:15.034Z,12.27
2022-12-03T19:04:16.354Z,9.50
2022-12-03T19:09:17.983Z,12.07
2022-12-03T19:14:19.312Z,9.60
2022-12-03T19:19:20.627Z,10.15
2022-12-03T19:24:24.792Z,9.73
2022-12-03T19:29:26.767Z,9.77
2022-12-03T19:34:28.083Z,11.43
2022-12-03T19:39:29.425Z,10.15
2022-12-03T19:44:30.847Z,9.18
2022-12-03T19:49:32.223Z,10.02
2022-12-03T19:54:33.567Z,8.75
2022-12-03T19:59:34.878Z,9.95
2022-12-03T20:04:37.437Z,9.75
2022-12-03T20:09:38.827Z,10.20
2022-12-03T20:14:40.166Z,10.65
2022-12-03T20:19:41.474Z,10.20
2022-12-03T20:24:42.782Z,10.02
2022-12-03T20:29:44.116Z,9.70
2022-12-03T20:34:45.681Z,9.55
2022-12-03T20:39:49.367Z,10.35
2022-12-03T20:44:51.365Z,9.52
2022-12-03T20:49:52.927Z,8.80
2022-12-03T20:54:54.350Z,9.65
2022-12-03T20:59:56.022Z,10.18
2022-12-03T21:04:57.613Z,9.55
2022-12-03T21:09:58.931Z,9.82
2022-12-03T21:15:00.365Z,8.40
2022-12-03T21:20:01.717Z,9.50
2022-12-03T21:25:03.143Z,9.30
2022-12-03T21:30:04.940Z,9.50
2022-12-03T21:35:06.604Z,10.18
2022-12-03T21:40:08.204Z,8.65
2022-12-03T21:45:09.717Z,9.57
2022-12-03T21:50:11.444Z,9.98
2022-12-03T21:55:12.805Z,9.38
2022-12-03T22:00:14.463Z,10.65
2022-12-03T22:05:18.909Z,11.05
2022-12-03T22:10:20.287Z,11.05
2022-12-03T22:15:21.647Z,9.85
2022-12-03T22:20:23.098Z,10.10
2022-12-03T22:25:24.413Z,10.18
2022-12-03T22:30:25.908Z,9.90
2022-12-03T22:35:27.233Z,9.07
2022-12-03T22:40:28.560Z,9.13
2022-12-03T22:45:29.866Z,11.18
2022-12-03T22:50:31.155Z,9.90
2022-12-03T22:55:32.461Z,9.95
2022-12-03T23:00:35.324Z,9.50
2022-12-03T23:05:38.505Z,10.07
2022-12-03T23:10:41.292Z,10.45
2022-12-03T23:15:46.484Z,10.88
2022-12-03T23:20:49.608Z,10.05
2022-12-03T23:25:56.815Z,10.50
2022-12-03T23:30:58.256Z,11.57
2022-12-03T23:35:59.623Z,11.45
2022-12-03T23:41:04.609Z,10.70
2022-12-03T23:46:10.549Z,12.02
2022-12-03T23:51:13.621Z,10.68
2022-12-03T23:56:16.581Z,9.60
